createdAt,value
2024-03-05T00:09:28.952Z,20.50
2024-03-05T00:19:29.577Z,19.60
2024-03-05T00:29:30.090Z,18.30
2024-03-05T00:39:30.717Z,18.00
2024-03-05T00:49:31.331Z,19.80
2024-03-05T00:59:31.887Z,18.90
2024-03-05T01:09:32.435Z,19.40
2024-03-05T01:19:33.068Z,19.20
2024-03-05T01:29:33.591Z,18.30
2024-03-05T01:39:34.201Z,18.50
2024-03-05T01:49:34.810Z,18.60
2024-03-05T01:59:35.338Z,19.00
2024-03-05T02:09:36.052Z,18.10
2024-03-05T02:19:36.711Z,18.00
2024-03-05T02:29:37.229Z,19.10
2024-03-05T02:39:37.790Z,18.90
2024-03-05T02:49:38.500Z,19.30
2024-03-05T02:59:39.050Z,20.10
2024-03-05T03:09:39.576Z,19.40
2024-03-05T03:19:40.178Z,20.10
2024-03-05T03:29:40.685Z,19.60
2024-03-05T03:39:41.251Z,19.60
2024-03-05T03:49:41.823Z,19.20
2024-03-05T03:59:42.357Z,19.50
2024-03-05T04:09:49.885Z,21.60
2024-03-05T04:19:43.455Z,18.00
2024-03-05T04:29:43.950Z,17.10
2024-03-05T04:39:45.457Z,17.40
2024-03-05T04:49:45.019Z,16.90
2024-03-05T04:59:45.611Z,17.20
2024-03-05T05:09:46.154Z,17.30
2024-03-05T05:19:46.760Z,17.90
2024-03-05T05:29:48.740Z,17.90
2024-03-05T05:39:47.748Z,17.70
2024-03-05T05:49:48.276Z,17.20
2024-03-05T05:59:48.772Z,17.10
2024-03-05T06:09:49.255Z,16.60
2024-03-05T06:19:49.846Z,16.70
2024-03-05T06:29:50.333Z,18.10
2024-03-05T06:39:50.835Z,17.40
2024-03-05T06:49:51.333Z,18.40
2024-03-05T06:59:51.859Z,17.00
2024-03-05T07:09:52.344Z,16.30
2024-03-05T07:19:52.921Z,16.40
2024-03-05T07:29:53.414Z,16.20
2024-03-05T07:39:54.076Z,16.30
2024-03-05T07:49:54.552Z,16.10
2024-03-05T07:59:55.092Z,16.60
2024-03-05T08:09:55.521Z,16.60
2024-03-05T08:19:56.041Z,16.30
2024-03-05T08:29:56.529Z,17.20
2024-03-05T08:39:57.031Z,15.30
2024-03-05T08:49:57.602Z,15.30
2024-03-05T08:59:58.170Z,16.70
2024-03-05T09:09:58.615Z,15.20
2024-03-05T09:19:59.277Z,14.10
2024-03-05T09:29:59.802Z,14.30
2024-03-05T09:40:00.342Z,15.20
2024-03-05T09:50:00.888Z,15.40
2024-03-05T10:00:01.407Z,14.00
2024-03-05T10:10:08.919Z,13.90
2024-03-05T10:20:02.944Z,13.50
2024-03-05T10:30:03.309Z,11.50
2024-03-05T10:40:03.900Z,10.10
2024-03-05T10:50:04.550Z,9.50
2024-03-05T11:00:05.167Z,9.60
2024-03-05T11:10:05.760Z,8.60
2024-03-05T11:20:06.499Z,8.90
2024-03-05T11:30:07.034Z,7.60
2024-03-05T11:40:09.501Z,7.50
2024-03-05T11:50:08.343Z,7.50
2024-03-05T12:00:08.949Z,6.60
2024-03-05T12:10:09.571Z,6.60
2024-03-05T12:20:10.756Z,6.80
2024-03-05T12:30:10.688Z,7.40
2024-03-05T12:40:11.207Z,7.70
2024-03-05T12:50:11.774Z,8.00
2024-03-05T13:00:12.567Z,7.80
2024-03-05T13:10:13.178Z,7.80
2024-03-05T13:20:13.927Z,7.10
2024-03-05T13:30:15.956Z,6.80
2024-03-05T13:40:15.648Z,7.30
2024-03-05T13:50:16.103Z,8.90
2024-03-05T14:00:16.516Z,8.20
2024-03-05T14:10:17.322Z,8.20
2024-03-05T14:20:17.554Z,8.00
2024-03-05T14:30:18.217Z,11.30
2024-03-05T14:40:18.876Z,10.90
2024-03-05T14:50:19.537Z,11.10
2024-03-05T15:00:20.425Z,10.90
2024-03-05T15:10:21.049Z,11.40
2024-03-05T15:20:21.680Z,11.30
2024-03-05T15:30:22.170Z,13.00
2024-03-05T15:40:23.096Z,12.80
2024-03-05T15:50:23.076Z,10.90
2024-03-05T16:00:23.685Z,11.40
2024-03-05T16:10:24.758Z,12.10
2024-03-05T16:20:25.156Z,13.80
2024-03-05T16:30:25.766Z,14.60
2024-03-05T16:40:26.494Z,15.70
2024-03-05T16:50:28.336Z,15.10
2024-03-05T17:00:27.603Z,16.00
2024-03-05T17:10:28.205Z,15.40
2024-03-05T17:20:28.700Z,15.80
2024-03-05T17:30:29.328Z,16.10
2024-03-05T17:40:29.959Z,15.70
2024-03-05T17:50:30.616Z,16.80
2024-03-05T18:00:31.641Z,17.60
2024-03-05T18:10:31.877Z,17.70
2024-03-05T18:20:32.580Z,17.40
2024-03-05T18:30:33.396Z,18.50
2024-03-05T18:40:34.499Z,20.00
2024-03-05T18:50:41.888Z,21.10
2024-03-05T19:00:35.130Z,20.60
2024-03-05T19:10:36.085Z,21.80
2024-03-05T19:20:36.965Z,22.00
2024-03-05T19:30:37.532Z,22.60
2024-03-05T19:40:38.247Z,23.00
2024-03-05T19:50:39.309Z,21.70
2024-03-05T20:00:39.584Z,30.20
2024-03-05T20:10:40.208Z,22.20
2024-03-05T20:20:41.059Z,22.90
2024-03-05T20:30:41.900Z,24.60
2024-03-05T20:40:42.458Z,25.50
2024-03-05T20:50:43.099Z,24.50
2024-03-05T21:00:43.844Z,25.40
2024-03-05T21:10:44.742Z,24.60
2024-03-05T21:20:45.215Z,25.10
2024-03-05T21:30:45.497Z,25.10
2024-03-05T21:40:46.157Z,23.90
2024-03-05T21:50:46.868Z,26.70
2024-03-05T22:00:47.521Z,22.30
2024-03-05T22:10:48.558Z,20.00
2024-03-05T22:20:49.045Z,21.90
2024-03-05T22:30:49.247Z,18.60
2024-03-05T22:40:49.930Z,17.70
2024-03-05T22:50:50.730Z,16.60
2024-03-05T23:00:58.358Z,17.10
2024-03-05T23:10:52.130Z,16.80
2024-03-05T23:20:52.723Z,16.50
2024-03-05T23:30:53.473Z,18.70
2024-03-05T23:40:55.970Z,19.20
2024-03-05T23:50:54.938Z,20.10
